Time;durP1;ratioP1;P1;durP2;ratioP2;P2;SDS_P1;SDS_P2;PMS_P1;PMS_P2;Temp;Humidity;BMP_temperature;BMP_pressure;BME280_temperature;BME280_humidity;BME280_pressure;Samples;Min_cycle;Max_cycle;Signal;HPM_P1;HPM_P2
2023/07/15 00:00:04;;;;;;;6.20;4.90;;;19.50;99.90;;;;;;5091166;27;20051;-40
2023/07/15 00:02:30;;;;;;;8.00;6.32;;;19.50;99.90;;;;;;5111987;27;20058;-39
2023/07/15 00:04:55;;;;;;;6.43;5.15;;;19.50;99.90;;;;;;5111653;27;21759;-40
2023/07/15 00:07:21;;;;;;;10.25;5.68;;;19.50;99.90;;;;;;5111941;27;20492;-39
2023/07/15 00:09:47;;;;;;;6.72;5.18;;;19.50;99.90;;;;;;5113622;27;20071;-39
2023/07/15 00:12:12;;;;;;;7.97;5.10;;;19.50;99.90;;;;;;5092180;27;20039;-39
2023/07/15 00:14:39;;;;;;;5.15;4.60;;;19.50;99.90;;;;;;5113789;27;20047;-39
2023/07/15 00:17:05;;;;;;;8.32;5.10;;;19.60;99.90;;;;;;5111146;27;20585;-39
2023/07/15 00:19:33;;;;;;;6.35;4.75;;;19.60;99.90;;;;;;5113548;27;20051;-39
2023/07/15 00:21:59;;;;;;;8.27;4.88;;;19.70;99.90;;;;;;5113442;27;20050;-41
2023/07/15 00:24:25;;;;;;;9.25;5.18;;;19.70;99.90;;;;;;5076744;27;20405;-40
2023/07/15 00:26:52;;;;;;;5.88;4.05;;;19.70;99.90;;;;;;5114118;27;20047;-39
2023/07/15 00:29:19;;;;;;;7.22;4.97;;;19.70;99.90;;;;;;5112419;27;20039;-39
2023/07/15 00:31:44;;;;;;;6.53;4.28;;;19.70;99.90;;;;;;5112424;27;20835;-39
2023/07/15 00:34:10;;;;;;;10.30;4.85;;;19.70;99.90;;;;;;5090409;27;20047;-39
2023/07/15 00:36:36;;;;;;;7.53;5.05;;;19.80;99.90;;;;;;5108062;27;20146;-39
2023/07/15 00:39:03;;;;;;;7.35;4.68;;;19.80;99.90;;;;;;5089744;27;20055;-40
2023/07/15 00:41:33;;;;;;;4.85;4.28;;;19.80;99.90;;;;;;5111317;27;20047;-39
2023/07/15 00:43:59;;;;;;;8.15;4.50;;;19.90;99.90;;;;;;5091012;27;20054;-39
2023/07/15 00:46:41;;;;;;;7.82;4.50;;;19.90;99.90;;;;;;5075436;27;20046;-39
2023/07/15 00:49:19;;;;;;;6.32;4.70;;;19.90;99.90;;;;;;5112912;27;20054;-39
2023/07/15 00:51:50;;;;;;;12.85;5.05;;;19.90;99.90;;;;;;5091078;28;20118;-40
2023/07/15 00:54:15;;;;;;;8.52;4.75;;;19.90;99.90;;;;;;5112549;27;20043;-40
2023/07/15 00:56:44;;;;;;;5.53;4.25;;;19.90;99.90;;;;;;5111190;27;20050;-39
2023/07/15 00:59:12;;;;;;;8.52;4.85;;;19.90;99.90;;;;;;5091609;28;20551;-39
2023/07/15 01:01:38;;;;;;;7.38;4.45;;;19.90;99.90;;;;;;5109813;27;20049;-39
2023/07/15 01:04:05;;;;;;;8.18;4.47;;;19.90;99.90;;;;;;5090998;28;20074;-40
2023/07/15 01:06:33;;;;;;;7.43;4.20;;;19.90;99.90;;;;;;5110039;27;20046;-40
2023/07/15 01:08:59;;;;;;;7.72;4.78;;;19.90;99.90;;;;;;5110549;27;20047;-40
2023/07/15 01:11:27;;;;;;;6.25;4.55;;;19.90;99.90;;;;;;5110864;28;20501;-40
2023/07/15 01:13:53;;;;;;;6.97;3.85;;;20.00;99.90;;;;;;5110310;27;20051;-39
2023/07/15 01:16:18;;;;;;;6.78;4.30;;;20.00;99.90;;;;;;5109883;27;20065;-40
2023/07/15 01:18:44;;;;;;;5.43;4.28;;;20.00;99.90;;;;;;5114480;27;20230;-39
2023/07/15 01:21:13;;;;;;;5.43;4.05;;;20.00;99.90;;;;;;5110841;27;20043;-39
2023/07/15 01:23:38;;;;;;;4.90;3.67;;;20.00;99.90;;;;;;5111953;27;20405;-41
2023/07/15 01:26:04;;;;;;;6.72;3.97;;;20.10;99.90;;;;;;5110989;27;20039;-39
2023/07/15 01:28:31;;;;;;;8.55;4.45;;;20.10;99.90;;;;;;5091425;28;20126;-39
2023/07/15 01:30:58;;;;;;;6.30;4.10;;;20.10;99.90;;;;;;5093799;28;20047;-40
2023/07/15 01:33:25;;;;;;;5.25;3.65;;;20.10;99.90;;;;;;5091669;28;20055;-39
2023/07/15 01:35:51;;;;;;;5.75;4.78;;;20.20;99.90;;;;;;5107338;27;20055;-39
2023/07/15 01:38:16;;;;;;;8.07;4.05;;;20.10;99.90;;;;;;5108130;27;20043;-39
2023/07/15 01:40:43;;;;;;;5.55;3.65;;;20.10;99.90;;;;;;5110608;27;20050;-39
2023/07/15 01:43:09;;;;;;;8.13;4.60;;;20.10;99.90;;;;;;5108080;27;20445;-39
2023/07/15 01:45:36;;;;;;;7.80;4.35;;;20.00;99.90;;;;;;5110813;27;20476;-39
2023/07/15 01:48:02;;;;;;;4.40;3.60;;;20.00;99.90;;;;;;5113859;27;20165;-39
2023/07/15 01:50:27;;;;;;;7.38;3.78;;;20.00;99.90;;;;;;5115076;27;20427;-39
2023/07/15 01:52:53;;;;;;;9.52;4.90;;;20.00;99.90;;;;;;5114245;27;20405;-39
2023/07/15 01:55:19;;;;;;;6.75;3.83;;;20.00;99.90;;;;;;5115168;27;20114;-39
2023/07/15 01:57:44;;;;;;;7.57;3.58;;;20.10;99.90;;;;;;5114297;27;20071;-39
2023/07/15 02:00:10;;;;;;;8.98;3.85;;;20.10;99.90;;;;;;5095610;27;20111;-39
2023/07/15 02:02:36;;;;;;;6.28;3.55;;;20.10;99.90;;;;;;5086790;27;20042;-40
2023/07/15 02:05:02;;;;;;;5.30;4.13;;;20.10;99.90;;;;;;5113029;27;20230;-39
2023/07/15 02:07:28;;;;;;;6.30;3.55;;;20.10;99.90;;;;;;5112110;27;20464;-40
2023/07/15 02:09:53;;;;;;;5.30;3.22;;;20.20;99.90;;;;;;5114994;27;20047;-40
2023/07/15 02:12:19;;;;;;;6.82;3.25;;;20.20;99.90;;;;;;5113555;27;20312;-39
2023/07/15 02:14:44;;;;;;;4.68;3.50;;;20.20;99.90;;;;;;5116576;27;20092;-40
2023/07/15 02:17:10;;;;;;;10.68;3.70;;;20.20;99.90;;;;;;5115435;27;20035;-39
2023/07/15 02:19:36;;;;;;;6.18;3.90;;;20.20;99.90;;;;;;5116842;27;20045;-39
2023/07/15 02:22:02;;;;;;;5.07;3.42;;;20.20;99.90;;;;;;5114896;27;20452;-39
2023/07/15 02:24:27;;;;;;;8.50;3.90;;;20.20;99.90;;;;;;5116463;27;20047;-39
2023/07/15 02:26:53;;;;;;;5.10;4.15;;;20.20;99.90;;;;;;5116063;27;20491;-39
2023/07/15 02:29:19;;;;;;;6.70;4.40;;;20.20;99.90;;;;;;5114917;27;20074;-39
2023/07/15 02:31:44;;;;;;;6.97;3.90;;;20.10;99.90;;;;;;5116154;27;20501;-39
2023/07/15 02:34:11;;;;;;;5.20;3.72;;;20.10;99.90;;;;;;5114310;27;20049;-39
2023/07/15 02:36:36;;;;;;;8.15;4.25;;;20.00;99.90;;;;;;5111266;27;20049;-40
2023/07/15 02:39:04;;;;;;;6.65;3.97;;;20.00;99.90;;;;;;5113803;27;20806;-39
2023/07/15 02:41:32;;;;;;;6.93;4.03;;;19.90;99.90;;;;;;5113154;27;20443;-39
2023/07/15 02:43:58;;;;;;;9.20;4.43;;;19.80;99.90;;;;;;5111946;27;20157;-39
2023/07/15 02:46:24;;;;;;;6.63;3.83;;;19.80;99.90;;;;;;5095809;27;20047;-38
2023/07/15 02:48:50;;;;;;;10.10;4.68;;;19.70;99.90;;;;;;5114042;27;20042;-39
2023/07/15 02:51:15;;;;;;;7.30;4.40;;;19.60;99.90;;;;;;5116322;27;20481;-39
2023/07/15 02:53:43;;;;;;;7.90;4.18;;;19.50;99.90;;;;;;5113185;27;20389;-39
2023/07/15 02:56:10;;;;;;;10.25;4.15;;;19.40;99.90;;;;;;5115123;27;20050;-39
2023/07/15 02:58:35;;;;;;;9.43;4.05;;;19.40;99.90;;;;;;5114570;27;20039;-39
2023/07/15 03:01:01;;;;;;;5.43;4.18;;;19.30;99.90;;;;;;5113717;27;20096;-39
2023/07/15 03:03:26;;;;;;;6.40;3.90;;;19.20;99.90;;;;;;5094689;27;20442;-39
2023/07/15 03:05:54;;;;;;;10.50;4.43;;;19.20;99.90;;;;;;5115284;27;20047;-39
2023/07/15 03:08:20;;;;;;;6.25;4.35;;;19.10;99.90;;;;;;5093000;27;20038;-40
2023/07/15 03:10:46;;;;;;;9.90;4.40;;;19.00;99.90;;;;;;5115399;27;20051;-39
2023/07/15 03:13:12;;;;;;;6.72;3.78;;;19.00;99.90;;;;;;5113619;27;20043;-39
2023/07/15 03:15:39;;;;;;;8.98;4.13;;;19.00;99.90;;;;;;5094092;27;20051;-39
2023/07/15 03:18:05;;;;;;;6.80;4.00;;;19.00;99.90;;;;;;5112457;27;20042;-39
2023/07/15 03:20:31;;;;;;;6.80;4.05;;;18.90;99.90;;;;;;5112738;27;20047;-39
2023/07/15 03:22:57;;;;;;;5.18;3.97;;;18.90;99.90;;;;;;5113861;27;20502;-38
2023/07/15 03:25:23;;;;;;;6.18;3.78;;;18.90;99.90;;;;;;5113647;27;20129;-39
2023/07/15 03:27:50;;;;;;;6.57;3.80;;;18.90;99.90;;;;;;5114165;27;20046;-39
2023/07/15 03:30:17;;;;;;;7.45;3.95;;;18.90;99.90;;;;;;5076771;27;20054;-39
2023/07/15 03:32:44;;;;;;;6.70;3.97;;;18.80;99.90;;;;;;5112265;27;20050;-38
2023/07/15 03:35:10;;;;;;;4.65;4.00;;;18.80;99.90;;;;;;5106900;27;20054;-39
2023/07/15 03:37:37;;;;;;;8.73;4.13;;;18.80;99.90;;;;;;5091104;27;20518;-39
2023/07/15 03:40:07;;;;;;;10.77;5.05;;;18.80;99.90;;;;;;5092612;27;20057;-38
2023/07/15 03:42:33;;;;;;;5.28;4.10;;;18.80;99.90;;;;;;5113210;27;20107;-38
2023/07/15 03:44:59;;;;;;;5.90;4.30;;;18.80;99.90;;;;;;5111696;27;20550;-39
2023/07/15 03:47:24;;;;;;;6.70;4.43;;;18.70;99.90;;;;;;5114932;27;20039;-39
2023/07/15 03:49:50;;;;;;;8.43;4.07;;;18.70;99.90;;;;;;5093728;27;20373;-39
2023/07/15 03:52:16;;;;;;;8.43;4.22;;;18.70;99.90;;;;;;5111415;27;20042;-39
2023/07/15 03:54:43;;;;;;;6.70;4.18;;;18.70;99.90;;;;;;5114886;27;20070;-38
2023/07/15 03:57:09;;;;;;;7.18;4.68;;;18.70;99.90;;;;;;5076018;27;20525;-39
2023/07/15 03:59:34;;;;;;;7.07;4.45;;;18.70;99.90;;;;;;5112527;27;20039;-38
2023/07/15 04:02:00;;;;;;;9.30;4.65;;;18.70;99.90;;;;;;5112885;27;20058;-39
2023/07/15 04:04:26;;;;;;;11.65;4.18;;;18.80;99.90;;;;;;5114196;27;20149;-39
2023/07/15 04:06:52;;;;;;;7.10;4.13;;;19.10;99.90;;;;;;5113922;27;20061;-39
2023/07/15 04:09:17;;;;;;;7.55;4.53;;;19.30;99.90;;;;;;5114969;27;20131;-38
2023/07/15 04:11:44;;;;;;;7.43;4.30;;;19.70;99.90;;;;;;5114456;27;20112;-39
2023/07/15 04:14:12;;;;;;;8.80;4.40;;;20.20;99.90;;;;;;5115785;27;20082;-39
2023/07/15 04:16:38;;;;;;;7.28;4.28;;;20.60;99.90;;;;;;5115089;27;20054;-39
2023/07/15 04:19:04;;;;;;;6.03;3.85;;;21.10;99.90;;;;;;5116133;27;20118;-40
2023/07/15 04:21:29;;;;;;;6.05;4.30;;;21.50;99.90;;;;;;5115168;27;20472;-39
2023/07/15 04:23:55;;;;;;;5.70;4.13;;;22.00;99.90;;;;;;5115276;27;20373;-40
2023/07/15 04:26:25;;;;;;;7.25;4.35;;;22.30;99.90;;;;;;5114836;27;20549;-40
2023/07/15 04:28:54;;;;;;;6.53;4.65;;;22.90;99.90;;;;;;5115972;27;20716;-39
2023/07/15 04:31:21;;;;;;;8.05;4.93;;;23.20;99.90;;;;;;5115261;27;20640;-40
2023/07/15 04:33:48;;;;;;;5.90;4.05;;;23.40;99.90;;;;;;5115440;27;20047;-40
2023/07/15 04:36:14;;;;;;;14.20;5.40;;;23.30;99.90;;;;;;5105377;27;20131;-39
2023/07/15 04:38:40;;;;;;;5.90;4.68;;;23.40;99.90;;;;;;5112391;27;20104;-39
2023/07/15 04:41:05;;;;;;;6.45;4.65;;;23.60;99.90;;;;;;5097569;27;20051;-39
2023/07/15 04:43:32;;;;;;;5.38;3.97;;;24.00;99.90;;;;;;5107178;27;20094;-40
2023/07/15 04:45:58;;;;;;;5.32;4.18;;;23.70;99.90;;;;;;5125247;27;20054;-40
2023/07/15 04:48:24;;;;;;;5.82;4.00;;;23.80;99.90;;;;;;5136111;27;20139;-40
2023/07/15 04:50:50;;;;;;;5.20;3.90;;;24.40;99.90;;;;;;5136542;27;20091;-40
2023/07/15 04:53:16;;;;;;;5.47;4.65;;;24.70;99.90;;;;;;5135709;27;20057;-40
2023/07/15 04:55:42;;;;;;;8.10;4.20;;;25.20;99.90;;;;;;5135246;27;20081;-41
2023/07/15 04:58:09;;;;;;;8.63;4.65;;;25.60;99.90;;;;;;5135438;27;20453;-41
2023/07/15 05:00:36;;;;;;;6.45;4.75;;;26.00;99.90;;;;;;5135421;27;20102;-40
2023/07/15 05:03:04;;;;;;;10.75;4.50;;;26.30;99.90;;;;;;5134753;27;20053;-40
2023/07/15 05:05:30;;;;;;;6.30;4.13;;;26.70;99.70;;;;;;5135263;27;20055;-41
2023/07/15 05:08:01;;;;;;;5.97;4.30;;;27.00;99.00;;;;;;5135416;27;20054;-41
2023/07/15 05:10:28;;;;;;;;;;;27.00;98.70;;;;;;5117795;27;20265;-40
2023/07/15 05:12:54;;;;;;;5.82;4.28;;;27.10;98.10;;;;;;5135324;27;19923;-41
2023/07/15 05:15:20;;;;;;;6.30;4.28;;;27.30;98.50;;;;;;5134942;27;20039;-42
2023/07/15 05:17:45;;;;;;;6.20;4.05;;;27.40;98.20;;;;;;5134760;27;20504;-40
2023/07/15 05:20:13;;;;;;;6.97;4.47;;;27.50;98.20;;;;;;5135828;27;20095;-41
2023/07/15 05:22:39;;;;;;;7.13;3.78;;;27.70;97.90;;;;;;5119146;27;20054;-41
2023/07/15 05:25:05;;;;;;;8.10;4.82;;;27.80;97.90;;;;;;5138166;27;20062;-41
2023/07/15 05:27:31;;;;;;;5.85;4.13;;;27.60;98.20;;;;;;5138049;27;20085;-41
2023/07/15 05:29:57;;;;;;;7.45;4.05;;;27.60;98.30;;;;;;5139539;27;20540;-41
2023/07/15 05:32:22;;;;;;;8.45;4.30;;;27.90;98.40;;;;;;5129073;27;20051;-41
2023/07/15 05:34:48;;;;;;;6.80;4.40;;;28.10;98.50;;;;;;5096196;27;20059;-41
2023/07/15 05:37:13;;;;;;;6.15;4.32;;;28.20;98.50;;;;;;5098624;27;20051;-40
2023/07/15 05:39:39;;;;;;;9.07;4.55;;;28.60;98.50;;;;;;5115860;27;20046;-41
2023/07/15 05:42:05;;;;;;;7.43;3.75;;;28.20;98.50;;;;;;5118699;27;20054;-40
2023/07/15 05:44:30;;;;;;;7.13;4.93;;;26.90;99.70;;;;;;5086501;27;20046;-41
2023/07/15 05:46:56;;;;;;;5.13;4.20;;;25.90;99.90;;;;;;5118445;27;20140;-40
2023/07/15 05:49:22;;;;;;;5.43;3.60;;;25.40;99.90;;;;;;5122246;27;20054;-40
2023/07/15 05:51:47;;;;;;;6.03;4.03;;;25.30;99.90;;;;;;5119389;27;20065;-41
2023/07/15 05:54:13;;;;;;;6.82;4.30;;;25.70;99.90;;;;;;5139089;27;20374;-41
2023/07/15 05:56:38;;;;;;;6.53;4.10;;;25.90;99.90;;;;;;5138977;27;20046;-41
2023/07/15 05:59:04;;;;;;;5.75;4.03;;;26.50;99.90;;;;;;5139007;27;20095;-40
2023/07/15 06:01:30;;;;;;;16.00;5.05;;;27.30;99.90;;;;;;5137648;27;20050;-42
2023/07/15 06:03:56;;;;;;;8.57;5.05;;;27.90;99.90;;;;;;5139104;27;20047;-40
2023/07/15 06:06:21;;;;;;;7.05;4.47;;;29.00;99.90;;;;;;5138583;27;20057;-41
2023/07/15 06:08:47;;;;;;;8.45;4.20;;;29.70;99.20;;;;;;5138417;27;20129;-41
2023/07/15 06:11:13;;;;;;;7.40;4.30;;;29.60;97.80;;;;;;5120044;27;20046;-41
2023/07/15 06:13:38;;;;;;;10.43;4.78;;;29.90;97.30;;;;;;5120295;27;20053;-42
2023/07/15 06:16:04;;;;;;;4.85;3.90;;;30.30;97.10;;;;;;5118229;27;20058;-41
2023/07/15 06:18:29;;;;;;;4.80;3.65;;;30.00;97.00;;;;;;5138837;27;20184;-41
2023/07/15 06:20:55;;;;;;;8.10;4.00;;;29.80;96.60;;;;;;5139030;27;20054;-41
2023/07/15 06:23:21;;;;;;;6.90;4.32;;;30.00;96.70;;;;;;5119840;27;20062;-41
2023/07/15 06:25:46;;;;;;;4.30;3.63;;;29.60;96.80;;;;;;5136698;27;20057;-40
2023/07/15 06:28:12;;;;;;;8.07;3.97;;;29.00;97.00;;;;;;5121268;27;20043;-40
2023/07/15 06:30:37;;;;;;;6.72;3.90;;;28.60;98.00;;;;;;5116376;27;20130;-40
2023/07/15 06:33:03;;;;;;;8.55;4.03;;;28.60;98.40;;;;;;5116211;27;20420;-40
2023/07/15 06:35:29;;;;;;;7.65;3.97;;;28.60;98.60;;;;;;5107321;27;20509;-41
2023/07/15 06:37:54;;;;;;;6.30;4.43;;;28.40;98.50;;;;;;5116053;27;20063;-41
2023/07/15 06:40:20;;;;;;;7.60;4.10;;;27.90;99.20;;;;;;5101659;27;20669;-40
2023/07/15 06:42:46;;;;;;;5.03;3.40;;;27.50;99.70;;;;;;5125222;27;20074;-41
2023/07/15 06:45:13;;;;;;;7.70;3.67;;;26.90;99.90;;;;;;5105835;27;20047;-41
2023/07/15 06:47:39;;;;;;;5.82;3.70;;;26.10;99.90;;;;;;5117157;27;20046;-41
2023/07/15 06:50:06;;;;;;;7.75;3.50;;;26.00;99.90;;;;;;5117911;27;20169;-41
2023/07/15 06:52:31;;;;;;;6.22;3.60;;;25.70;99.90;;;;;;5097633;27;20043;-40
2023/07/15 06:54:57;;;;;;;7.00;3.80;;;25.80;99.90;;;;;;5118071;27;20051;-42
2023/07/15 06:57:23;;;;;;;5.78;3.67;;;25.60;99.90;;;;;;5118146;27;20035;-40
2023/07/15 06:59:48;;;;;;;4.78;3.40;;;25.80;99.90;;;;;;5117788;27;20135;-43
2023/07/15 07:02:14;;;;;;;5.32;3.22;;;26.20;99.90;;;;;;5117290;27;20363;-41
2023/07/15 07:04:40;;;;;;;4.78;3.60;;;26.20;99.90;;;;;;5117767;27;20051;-41
2023/07/15 07:07:06;;;;;;;6.68;3.40;;;26.00;99.90;;;;;;5099008;27;20043;-40
2023/07/15 07:09:31;;;;;;;3.78;3.03;;;25.70;99.90;;;;;;5118007;27;20082;-40
2023/07/15 07:11:58;;;;;;;6.57;3.08;;;25.80;99.90;;;;;;5116940;27;20049;-41
2023/07/15 07:14:24;;;;;;;7.00;2.97;;;26.10;99.90;;;;;;5116876;27;20043;-40
2023/07/15 07:16:49;;;;;;;9.77;3.13;;;26.20;99.90;;;;;;5115652;27;20047;-41
2023/07/15 07:19:15;;;;;;;6.82;3.05;;;26.40;99.90;;;;;;5115134;27;20043;-41
2023/07/15 07:21:42;;;;;;;6.05;3.00;;;26.70;99.90;;;;;;5115632;27;20055;-41
2023/07/15 07:24:09;;;;;;;3.90;2.45;;;27.00;99.90;;;;;;5098669;27;20066;-40
2023/07/15 07:26:35;;;;;;;3.25;2.50;;;27.00;99.90;;;;;;5115964;27;20112;-40
2023/07/15 07:29:01;;;;;;;6.18;3.05;;;26.80;99.90;;;;;;5116368;27;20150;-40
2023/07/15 07:31:27;;;;;;;3.70;2.60;;;27.00;99.90;;;;;;5116352;27;20146;-40
2023/07/15 07:33:53;;;;;;;5.03;2.90;;;27.50;99.90;;;;;;5116952;27;20054;-41
2023/07/15 07:36:19;;;;;;;4.07;2.97;;;27.40;99.90;;;;;;5106714;27;20085;-41
2023/07/15 07:38:45;;;;;;;4.15;2.78;;;27.90;99.90;;;;;;5113773;27;20549;-40
2023/07/15 07:41:12;;;;;;;3.45;2.40;;;28.10;99.90;;;;;;5115754;27;20042;-41
2023/07/15 07:43:39;;;;;;;3.47;2.30;;;28.00;99.90;;;;;;5107093;27;20383;-42
2023/07/15 07:46:07;;;;;;;4.43;2.45;;;27.80;99.90;;;;;;5127840;27;20046;-41
2023/07/15 07:48:33;;;;;;;4.60;2.03;;;27.90;99.90;;;;;;5137175;27;20054;-41
2023/07/15 07:50:59;;;;;;;3.83;2.35;;;27.90;99.90;;;;;;5135798;27;20047;-43
2023/07/15 07:53:25;;;;;;;3.33;2.13;;;27.80;99.90;;;;;;5137750;27;20051;-44
2023/07/15 07:55:52;;;;;;;6.30;2.33;;;27.70;99.90;;;;;;5117827;27;20837;-41
2023/07/15 07:58:18;;;;;;;2.78;1.85;;;27.70;99.90;;;;;;5118846;27;20063;-41
2023/07/15 08:00:44;;;;;;;5.97;2.25;;;27.70;99.90;;;;;;5136496;27;20115;-41
2023/07/15 08:03:10;;;;;;;3.72;2.10;;;27.70;99.90;;;;;;5135100;27;20049;-40
2023/07/15 08:05:44;;;;;;;3.67;1.98;;;28.10;99.90;;;;;;5134505;27;20039;-40
2023/07/15 08:08:11;;;;;;;5.80;2.03;;;28.10;99.90;;;;;;5134956;27;20477;-40
2023/07/15 08:10:37;;;;;;;3.13;1.80;;;28.00;99.90;;;;;;5136124;27;20055;-41
2023/07/15 08:13:05;;;;;;;6.78;1.88;;;27.70;99.90;;;;;;5117599;27;20523;-42
2023/07/15 08:15:35;;;;;;;3.83;1.83;;;27.40;99.90;;;;;;5135457;27;20054;-41
2023/07/15 08:18:02;;;;;;;2.28;1.60;;;27.10;99.90;;;;;;5136200;27;20046;-41
2023/07/15 08:20:29;;;;;;;2.70;1.70;;;26.80;99.90;;;;;;5136439;27;20101;-40
2023/07/15 08:22:56;;;;;;;3.22;2.10;;;26.70;99.90;;;;;;5135474;27;20057;-41
2023/07/15 08:25:21;;;;;;;4.13;1.98;;;26.60;99.90;;;;;;5117600;27;20099;-40
2023/07/15 08:27:47;;;;;;;2.90;1.90;;;26.60;99.90;;;;;;5122545;27;20043;-40
2023/07/15 08:30:13;;;;;;;4.32;2.00;;;26.70;99.90;;;;;;5098576;27;20164;-40
2023/07/15 08:32:39;;;;;;;3.60;2.05;;;27.00;99.90;;;;;;5086494;27;20097;-42
2023/07/15 08:35:05;;;;;;;4.55;2.33;;;27.40;99.90;;;;;;5092598;27;20127;-41
2023/07/15 08:37:31;;;;;;;3.60;1.98;;;27.50;98.90;;;;;;5073921;28;20055;-41
2023/07/15 08:39:57;;;;;;;3.75;1.77;;;27.20;98.60;;;;;;5097940;27;20393;-40
2023/07/15 08:42:24;;;;;;;3.13;1.90;;;27.20;98.50;;;;;;5103060;27;20602;-41
2023/07/15 08:44:50;;;;;;;3.38;1.77;;;27.30;99.50;;;;;;5074240;27;20437;-41
2023/07/15 08:47:22;;;;;;;4.72;2.03;;;27.70;99.20;;;;;;5098331;27;20491;-40
2023/07/15 08:49:49;;;;;;;5.40;2.03;;;27.90;98.90;;;;;;5096151;27;20050;-40
2023/07/15 08:52:21;;;;;;;5.18;1.95;;;27.60;98.30;;;;;;5096000;27;20476;-41
2023/07/15 08:54:51;;;;;;;2.47;1.65;;;27.30;98.70;;;;;;5092528;27;20058;-41
2023/07/15 08:57:26;;;;;;;1.88;1.58;;;27.20;99.10;;;;;;5078720;27;20039;-41
2023/07/15 08:59:54;;;;;;;2.85;1.60;;;27.20;99.20;;;;;;5074851;28;20398;-40
2023/07/15 09:02:20;;;;;;;3.42;2.25;;;27.00;99.40;;;;;;5074066;27;20055;-40
2023/07/15 09:04:46;;;;;;;2.90;1.70;;;27.00;99.90;;;;;;5097544;28;20095;-40
2023/07/15 09:07:11;;;;;;;4.22;1.75;;;26.80;99.20;;;;;;5097314;27;20043;-40
2023/07/15 09:09:38;;;;;;;3.35;1.80;;;26.70;98.30;;;;;;5098639;27;20126;-40
2023/07/15 09:12:11;;;;;;;3.28;2.10;;;26.70;99.20;;;;;;5084643;28;20062;-40
2023/07/15 09:14:45;;;;;;;2.45;1.73;;;26.80;99.50;;;;;;5101800;27;20046;-40
2023/07/15 09:17:23;;;;;;;4.60;1.88;;;26.60;99.60;;;;;;5100061;27;20137;-40
2023/07/15 09:19:49;;;;;;;3.70;1.63;;;26.60;99.90;;;;;;5097064;27;20054;-41
2023/07/15 09:22:16;;;;;;;2.42;1.70;;;26.80;99.80;;;;;;5096981;27;20046;-40
2023/07/15 09:24:42;;;;;;;2.67;1.60;;;26.90;99.90;;;;;;5113320;27;20043;-41
2023/07/15 09:27:08;;;;;;;4.13;2.15;;;26.80;99.10;;;;;;5112719;27;20378;-40
2023/07/15 09:29:34;;;;;;;3.85;1.65;;;26.70;98.80;;;;;;5115065;27;20092;-40
2023/07/15 09:31:59;;;;;;;3.92;1.85;;;26.60;98.70;;;;;;5114690;27;20051;-42
2023/07/15 09:34:27;;;;;;;6.25;1.90;;;26.80;98.50;;;;;;5094089;27;20521;-41
2023/07/15 09:36:54;;;;;;;5.18;2.00;;;26.90;98.80;;;;;;5101431;27;20184;-40
2023/07/15 09:39:22;;;;;;;4.78;1.65;;;27.10;99.60;;;;;;5107848;27;20453;-41
2023/07/15 09:42:06;;;;;;;3.08;1.95;;;27.30;98.90;;;;;;5102621;27;20044;-40
2023/07/15 09:44:45;;;;;;;3.88;1.90;;;27.40;99.10;;;;;;5107248;27;20138;-41
2023/07/15 09:47:10;;;;;;;3.17;1.90;;;27.30;99.10;;;;;;5082322;28;20248;-41
2023/07/15 09:49:36;;;;;;;4.55;1.92;;;27.40;99.20;;;;;;5102615;27;20039;-41
2023/07/15 09:52:05;;;;;;;5.53;2.28;;;27.20;99.40;;;;;;5105204;27;20572;-40
2023/07/15 09:54:35;;;;;;;4.20;1.70;;;27.20;99.60;;;;;;5111818;27;20107;-42
2023/07/15 09:57:10;;;;;;;4.43;2.33;;;27.40;99.80;;;;;;5082155;28;20051;-40
2023/07/15 09:59:46;;;;;;;4.57;2.30;;;27.50;99.90;;;;;;5104881;27;20040;-41
2023/07/15 10:02:26;;;;;;;3.13;1.67;;;27.40;99.80;;;;;;5095666;27;20051;-40
2023/07/15 10:04:52;;;;;;;3.22;2.05;;;27.20;99.90;;;;;;5094732;27;20321;-40
2023/07/15 10:07:18;;;;;;;4.47;2.40;;;27.20;99.90;;;;;;5103972;27;20128;-40
2023/07/15 10:09:44;;;;;;;3.03;1.85;;;26.60;99.90;;;;;;5113760;27;20472;-40
2023/07/15 10:12:10;;;;;;;2.72;1.98;;;26.40;99.90;;;;;;5098969;27;20043;-41
2023/07/15 10:14:37;;;;;;;3.20;1.92;;;26.30;99.90;;;;;;5111962;27;20058;-41
2023/07/15 10:17:13;;;;;;;4.57;2.75;;;26.30;99.90;;;;;;5108087;27;20292;-40
2023/07/15 10:19:47;;;;;;;4.97;2.17;;;26.20;99.90;;;;;;5087249;27;20039;-42
2023/07/15 10:22:15;;;;;;;3.22;2.05;;;26.20;99.90;;;;;;5101728;27;20040;-42
2023/07/15 10:24:42;;;;;;;3.42;1.75;;;26.20;99.90;;;;;;5105550;27;20070;-40
2023/07/15 10:27:11;;;;;;;2.42;1.80;;;26.20;99.90;;;;;;5109142;27;20043;-40
2023/07/15 10:29:40;;;;;;;3.88;2.00;;;26.20;99.90;;;;;;5084124;27;20103;-40
2023/07/15 10:32:09;;;;;;;3.35;2.28;;;26.30;99.90;;;;;;5110413;27;20096;-41
2023/07/15 10:34:36;;;;;;;5.40;2.53;;;26.50;99.90;;;;;;5108316;27;20538;-41
2023/07/15 10:37:10;;;;;;;4.90;2.25;;;26.50;99.90;;;;;;5104348;27;20085;-41
2023/07/15 10:39:36;;;;;;;2.60;1.83;;;26.40;99.90;;;;;;5106136;27;20134;-42
2023/07/15 10:42:16;;;;;;;2.58;2.22;;;26.20;99.90;;;;;;5104721;27;20046;-40
2023/07/15 10:44:51;;;;;;;2.85;2.30;;;26.00;99.90;;;;;;5106989;27;20051;-41
2023/07/15 10:47:16;;;;;;;4.13;2.13;;;25.90;99.90;;;;;;5104523;27;20149;-40
2023/07/15 10:49:46;;;;;;;2.63;2.25;;;25.90;99.90;;;;;;5103038;27;20104;-44
2023/07/15 10:52:18;;;;;;;2.65;2.00;;;25.80;99.90;;;;;;5086490;27;20047;-40
2023/07/15 10:54:44;;;;;;;2.88;2.58;;;25.80;99.90;;;;;;5110546;27;20389;-41
2023/07/15 10:57:15;;;;;;;3.28;2.00;;;25.80;99.90;;;;;;5116802;27;20046;-41
2023/07/15 10:59:45;;;;;;;10.20;3.08;;;25.80;99.90;;;;;;5117695;27;20629;-40
2023/07/15 11:02:12;;;;;;;3.80;2.22;;;25.80;99.90;;;;;;5104547;27;20047;-41
2023/07/15 11:04:39;;;;;;;3.90;2.60;;;25.80;99.90;;;;;;5104718;27;20446;-40
2023/07/15 11:07:10;;;;;;;7.03;2.60;;;26.00;99.90;;;;;;5107590;27;20039;-41
2023/07/15 11:09:40;;;;;;;5.00;2.72;;;26.30;99.90;;;;;;5086296;27;20374;-40
2023/07/15 11:12:10;;;;;;;4.32;2.38;;;26.60;99.90;;;;;;5103777;27;20560;-41
2023/07/15 11:14:42;;;;;;;5.20;2.22;;;26.60;99.90;;;;;;5102269;27;20428;-42
2023/07/15 11:17:09;;;;;;;5.43;2.50;;;26.50;99.90;;;;;;5102714;27;20050;-41
2023/07/15 11:19:35;;;;;;;4.47;2.70;;;26.50;99.90;;;;;;5104194;27;21090;-41
2023/07/15 11:22:05;;;;;;;3.08;1.95;;;26.50;99.90;;;;;;5084191;28;20126;-41
2023/07/15 11:24:31;;;;;;;7.22;2.22;;;26.50;99.90;;;;;;5104938;27;20047;-41
2023/07/15 11:27:00;;;;;;;4.28;1.80;;;26.40;99.90;;;;;;5098324;27;20093;-41
2023/07/15 11:29:26;;;;;;;4.60;1.98;;;26.50;99.90;;;;;;5098319;27;20503;-41
2023/07/15 11:31:53;;;;;;;3.80;1.90;;;26.40;99.90;;;;;;5116082;27;20039;-40
2023/07/15 11:34:21;;;;;;;8.77;2.53;;;26.20;99.90;;;;;;5113879;27;20054;-41
2023/07/15 11:36:48;;;;;;;3.22;2.00;;;26.10;99.90;;;;;;5109906;27;20102;-40
2023/07/15 11:39:15;;;;;;;3.25;2.15;;;26.00;99.90;;;;;;5112733;27;20110;-40
2023/07/15 11:41:41;;;;;;;3.60;1.92;;;26.10;99.90;;;;;;5116262;27;20050;-42
2023/07/15 11:44:10;;;;;;;2.90;2.00;;;26.10;99.90;;;;;;5103432;27;20047;-41
2023/07/15 11:46:37;;;;;;;3.38;2.20;;;26.10;99.90;;;;;;5103016;27;20043;-41
2023/07/15 11:49:04;;;;;;;3.70;1.90;;;26.20;99.90;;;;;;5110090;27;20047;-41
2023/07/15 11:51:32;;;;;;;3.25;2.05;;;26.10;99.90;;;;;;5095930;27;20071;-39
2023/07/15 11:53:58;;;;;;;4.40;2.28;;;26.20;99.90;;;;;;5097797;27;20056;-40
2023/07/15 11:56:38;;;;;;;4.88;2.00;;;26.30;99.90;;;;;;5079569;28;20109;-42
2023/07/15 11:59:11;;;;;;;5.03;1.92;;;26.40;99.90;;;;;;5099562;27;20450;-40
2023/07/15 12:01:38;;;;;;;2.95;2.35;;;26.50;99.90;;;;;;5115697;27;20126;-40
2023/07/15 12:04:14;;;;;;;4.93;2.70;;;26.60;99.90;;;;;;5111013;27;20039;-40
2023/07/15 12:06:51;;;;;;;3.80;2.40;;;26.60;99.90;;;;;;5114999;27;20047;-41
2023/07/15 12:09:17;;;;;;;4.43;2.50;;;26.60;99.90;;;;;;5116814;27;20110;-43
2023/07/15 12:11:43;;;;;;;6.18;2.58;;;26.60;99.90;;;;;;5110532;27;20115;-40
2023/07/15 12:14:09;;;;;;;5.15;2.42;;;26.60;99.90;;;;;;5115488;27;20558;-41
2023/07/15 12:16:38;;;;;;;5.97;2.05;;;26.40;99.90;;;;;;5114484;27;20045;-41
2023/07/15 12:19:05;;;;;;;5.32;1.90;;;26.40;99.90;;;;;;5097660;27;20489;-40
2023/07/15 12:21:31;;;;;;;3.15;2.15;;;26.50;99.90;;;;;;5117197;27;20103;-41
2023/07/15 12:23:57;;;;;;;2.95;1.80;;;26.60;99.90;;;;;;5118196;27;20099;-40
2023/07/15 12:26:24;;;;;;;3.47;2.25;;;26.40;99.90;;;;;;5119029;27;20146;-39
2023/07/15 12:28:50;;;;;;;3.80;2.55;;;26.40;99.90;;;;;;5120110;27;20469;-40
2023/07/15 12:31:16;;;;;;;4.28;1.95;;;26.40;99.90;;;;;;5116486;27;20039;-41
2023/07/15 12:33:43;;;;;;;3.30;1.95;;;26.20;99.90;;;;;;5116950;27;20058;-40
2023/07/15 12:36:10;;;;;;;3.53;2.05;;;25.90;99.90;;;;;;5110284;27;20224;-40
2023/07/15 12:38:37;;;;;;;3.35;2.38;;;25.80;99.90;;;;;;5107551;27;20524;-40
2023/07/15 12:41:04;;;;;;;17.08;3.30;;;25.70;99.90;;;;;;5116816;27;20494;-40
2023/07/15 12:43:30;;;;;;;5.20;2.50;;;25.70;99.90;;;;;;5101135;27;20052;-41